createdAt,value
2019-04-14T00:00:44.744Z,2.60
2019-04-14T00:03:34.740Z,2.40
2019-04-14T00:06:06.960Z,2.63
2019-04-14T00:08:39.458Z,3.73
2019-04-14T00:11:10.420Z,2.60
2019-04-14T00:13:39.933Z,3.00
2019-04-14T00:16:09.659Z,2.77
2019-04-14T00:18:40.432Z,2.63
2019-04-14T00:21:15.304Z,2.80
2019-04-14T00:23:46.400Z,3.80
2019-04-14T00:26:38.481Z,3.27
2019-04-14T00:29:15.214Z,2.47
2019-04-14T00:31:47.913Z,2.73
2019-04-14T00:34:37.635Z,2.20
2019-04-14T00:37:37.960Z,2.03
2019-04-14T00:40:19.357Z,2.17
2019-04-14T00:42:58.196Z,1.83
2019-04-14T00:45:41.462Z,1.90
2019-04-14T00:48:16.167Z,1.70
2019-04-14T00:50:47.308Z,1.60
2019-04-14T00:53:20.786Z,1.77
2019-04-14T00:55:59.822Z,1.97
2019-04-14T00:58:43.153Z,1.50
2019-04-14T01:01:28.637Z,2.03
2019-04-14T01:04:01.677Z,1.70
2019-04-14T01:07:08.637Z,1.73
2019-04-14T01:09:39.097Z,2.03
2019-04-14T01:12:13.395Z,2.07
2019-04-14T01:14:54.574Z,2.73
2019-04-14T01:17:24.452Z,2.20
2019-04-14T01:19:59.287Z,2.70
2019-04-14T01:23:04.249Z,2.23
2019-04-14T01:25:37.341Z,1.90
2019-04-14T01:28:12.080Z,1.80
2019-04-14T01:30:48.046Z,1.90
2019-04-14T01:33:18.325Z,2.23
2019-04-14T01:35:48.913Z,2.13
2019-04-14T01:38:19.038Z,1.80
2019-04-14T01:41:10.664Z,2.33
2019-04-14T01:43:40.670Z,1.90
2019-04-14T01:46:24.683Z,1.90
2019-04-14T01:48:51.921Z,2.40
2019-04-14T01:51:37.512Z,2.20
2019-04-14T01:54:21.968Z,1.87
2019-04-14T01:57:30.961Z,2.30
2019-04-14T02:00:45.002Z,2.53
2019-04-14T02:03:28.177Z,1.80
2019-04-14T02:06:11.561Z,2.73
2019-04-14T02:09:21.479Z,2.00
2019-04-14T02:12:17.325Z,3.20
2019-04-14T02:15:13.307Z,1.83
2019-04-14T02:17:48.310Z,1.80
2019-04-14T02:20:38.119Z,2.00
2019-04-14T02:23:47.549Z,1.80
2019-04-14T02:26:33.356Z,1.50
2019-04-14T02:29:14.838Z,1.87
2019-04-14T02:32:25.321Z,1.97
2019-04-14T02:35:00.229Z,1.60
2019-04-14T02:37:34.575Z,2.17
2019-04-14T02:40:21.697Z,1.87
2019-04-14T02:43:13.012Z,1.90
2019-04-14T02:45:33.161Z,1.80
2019-04-14T02:48:03.827Z,1.53
2019-04-14T02:50:24.364Z,1.80
2019-04-14T02:53:13.065Z,1.80
2019-04-14T02:55:46.813Z,2.10
2019-04-14T02:58:23.292Z,1.73
2019-04-14T03:03:41.379Z,2.13
2019-04-14T03:06:14.605Z,1.70
2019-04-14T03:08:50.802Z,2.17
2019-04-14T03:11:18.675Z,1.87
2019-04-14T03:13:51.095Z,2.00
2019-04-14T03:16:58.315Z,1.80
2019-04-14T03:19:56.539Z,1.90
2019-04-14T03:22:45.450Z,2.23
2019-04-14T03:25:30.060Z,1.90
2019-04-14T03:39:18.772Z,1.90
2019-04-14T03:44:33.149Z,1.70
2019-04-14T03:46:58.195Z,2.60
2019-04-14T03:49:32.106Z,1.90
2019-04-14T03:55:01.048Z,2.03
2019-04-14T03:57:19.419Z,2.37
2019-04-14T03:59:56.277Z,1.87
2019-04-14T04:02:31.551Z,2.73
2019-04-14T04:05:04.196Z,2.00
2019-04-14T04:07:34.381Z,2.10
2019-04-14T04:10:15.866Z,2.53
2019-04-14T04:12:46.999Z,2.00
2019-04-14T04:15:21.401Z,2.13
2019-04-14T04:18:04.817Z,3.10
2019-04-14T04:21:05.330Z,2.40
2019-04-14T04:24:27.826Z,2.50
2019-04-14T04:27:28.919Z,2.53
2019-04-14T04:30:12.370Z,3.07
2019-04-14T04:33:24.230Z,3.63
2019-04-14T04:36:01.091Z,2.47
2019-04-14T04:39:04.001Z,2.20
2019-04-14T04:41:33.978Z,2.87
2019-04-14T04:44:11.682Z,2.20
2019-04-14T04:46:48.355Z,2.60
2019-04-14T04:49:21.787Z,2.80
2019-04-14T04:51:49.059Z,2.63
2019-04-14T04:54:27.924Z,2.57
2019-04-14T04:56:58.028Z,2.03
2019-04-14T04:59:32.117Z,2.10
2019-04-14T05:02:02.651Z,2.60
2019-04-14T05:04:41.630Z,2.07
2019-04-14T05:07:17.038Z,2.10
2019-04-14T05:10:06.870Z,1.87
2019-04-14T05:13:09.400Z,2.10
2019-04-14T05:15:53.216Z,1.83
2019-04-14T05:18:29.099Z,2.10
2019-04-14T05:20:59.523Z,2.20
2019-04-14T05:23:29.943Z,1.87
2019-04-14T05:26:00.574Z,2.40
2019-04-14T05:28:31.009Z,1.90
2019-04-14T05:31:01.234Z,2.77
2019-04-14T05:33:38.925Z,1.93
2019-04-14T05:36:08.662Z,1.97
2019-04-14T05:38:44.926Z,1.90
2019-04-14T05:41:18.002Z,1.80
2019-04-14T05:43:57.060Z,2.20
2019-04-14T05:46:25.170Z,2.20
2019-04-14T05:48:55.784Z,2.30
2019-04-14T05:51:26.399Z,2.00
2019-04-14T05:53:58.974Z,2.10
2019-04-14T05:56:29.539Z,2.00
2019-04-14T05:59:00.054Z,2.07
2019-04-14T06:01:31.573Z,2.10
2019-04-14T06:04:02.447Z,2.30
2019-04-14T06:06:32.089Z,1.80
2019-04-14T06:09:01.581Z,2.00
2019-04-14T06:11:31.039Z,2.20
2019-04-14T06:14:00.427Z,2.20
2019-04-14T06:16:29.903Z,2.23
2019-04-14T06:18:59.334Z,2.23
2019-04-14T06:21:28.794Z,2.13
2019-04-14T06:23:58.543Z,2.60
2019-04-14T06:26:28.253Z,1.90
2019-04-14T06:28:57.661Z,1.83
2019-04-14T06:31:34.964Z,1.73
2019-04-14T06:34:09.162Z,2.67
2019-04-14T06:37:07.582Z,2.10
2019-04-14T06:39:40.432Z,1.80
2019-04-14T06:42:10.013Z,2.63
2019-04-14T06:44:39.555Z,2.10
2019-04-14T06:47:09.127Z,2.20
2019-04-14T06:49:48.379Z,1.70
2019-04-14T06:52:12.578Z,1.87
2019-04-14T06:54:42.208Z,2.27
2019-04-14T06:57:11.603Z,2.30
2019-04-14T06:59:41.494Z,1.90
2019-04-14T07:02:11.062Z,2.47
2019-04-14T07:04:40.503Z,1.90
2019-04-14T07:07:10.169Z,1.97
2019-04-14T07:09:39.667Z,2.10
2019-04-14T07:12:09.191Z,2.23
2019-04-14T07:14:39.375Z,1.80
2019-04-14T07:17:08.850Z,2.13
2019-04-14T07:19:38.327Z,2.27
2019-04-14T07:22:07.820Z,2.40
2019-04-14T07:24:37.726Z,1.80
2019-04-14T07:27:07.120Z,2.07
2019-04-14T07:29:46.244Z,2.17
2019-04-14T07:32:47.229Z,2.03
2019-04-14T07:35:35.124Z,2.17
2019-04-14T07:38:15.613Z,2.23
2019-04-14T07:41:08.130Z,1.97
2019-04-14T07:43:54.063Z,2.20
2019-04-14T07:46:43.830Z,1.93
2019-04-14T07:49:32.841Z,2.63
2019-04-14T07:52:20.391Z,2.20
2019-04-14T07:55:17.029Z,2.90
2019-04-14T07:57:58.032Z,2.13
2019-04-14T08:00:36.751Z,2.30
2019-04-14T08:03:10.658Z,2.20
2019-04-14T08:05:44.017Z,1.90
2019-04-14T08:08:16.758Z,2.13
2019-04-14T08:10:46.314Z,1.50
2019-04-14T08:13:15.957Z,1.80
2019-04-14T08:15:45.364Z,1.87
2019-04-14T08:18:15.213Z,2.10
2019-04-14T08:20:46.228Z,1.70
2019-04-14T08:23:15.808Z,1.77
2019-04-14T08:25:48.289Z,1.87
2019-04-14T08:28:17.682Z,2.07
2019-04-14T08:30:47.230Z,1.70
2019-04-14T08:33:16.897Z,2.10
2019-04-14T08:35:46.628Z,2.00
2019-04-14T08:38:16.577Z,2.13
2019-04-14T08:40:46.251Z,1.70
2019-04-14T08:43:34.463Z,1.50
2019-04-14T08:46:28.576Z,1.70
2019-04-14T08:49:07.390Z,1.80
2019-04-14T08:51:42.627Z,1.63
2019-04-14T08:54:36.947Z,1.83
2019-04-14T08:57:34.398Z,1.60
2019-04-14T09:00:32.054Z,1.70
2019-04-14T09:03:23.252Z,1.40
2019-04-14T09:06:10.258Z,1.80
2019-04-14T09:08:53.344Z,1.50
2019-04-14T09:11:28.983Z,1.67
2019-04-14T09:14:10.155Z,2.00
2019-04-14T09:16:31.043Z,1.80
2019-04-14T09:19:07.387Z,1.60
2019-04-14T09:21:31.588Z,1.70
2019-04-14T09:24:00.967Z,1.60
2019-04-14T09:26:30.428Z,1.53
2019-04-14T09:29:00.239Z,1.40
2019-04-14T09:31:29.824Z,1.73
2019-04-14T09:33:59.268Z,1.57
2019-04-14T09:36:28.775Z,1.70
2019-04-14T09:38:58.312Z,1.90
2019-04-14T09:41:27.715Z,1.70
2019-04-14T09:43:57.163Z,1.80
2019-04-14T09:46:26.571Z,1.70
2019-04-14T09:48:56.044Z,1.70
2019-04-14T09:51:25.574Z,1.70
2019-04-14T09:53:55.110Z,1.93
2019-04-14T09:56:24.550Z,1.57
2019-04-14T09:58:54.212Z,1.37
2019-04-14T10:01:27.611Z,1.47
2019-04-14T10:03:57.084Z,1.80
2019-04-14T10:06:26.670Z,1.63
2019-04-14T10:08:56.372Z,1.50
2019-04-14T10:11:25.935Z,1.20
2019-04-14T10:13:55.427Z,1.50
2019-04-14T10:16:25.064Z,1.40
2019-04-14T10:18:54.555Z,1.53
2019-04-14T10:21:24.217Z,1.50
2019-04-14T10:23:53.587Z,1.40
2019-04-14T10:26:23.074Z,1.50
2019-04-14T10:28:53.123Z,1.30
2019-04-14T10:31:22.579Z,1.47
2019-04-14T10:33:52.382Z,1.47
2019-04-14T10:36:21.891Z,1.70
2019-04-14T10:38:51.587Z,2.00
2019-04-14T10:41:21.094Z,1.20
2019-04-14T10:43:50.623Z,1.53
2019-04-14T10:46:20.062Z,1.30
2019-04-14T10:48:49.992Z,1.43
2019-04-14T10:51:29.464Z,1.10
2019-04-14T10:53:51.094Z,1.47
2019-04-14T10:56:20.685Z,1.17
2019-04-14T10:58:50.173Z,1.60
2019-04-14T11:01:19.733Z,1.40
2019-04-14T11:03:50.516Z,1.57
2019-04-14T11:06:30.259Z,1.50
2019-04-14T11:08:59.627Z,1.60
2019-04-14T11:11:29.109Z,1.23
2019-04-14T11:13:58.547Z,1.50
2019-04-14T11:16:27.906Z,2.00
2019-04-14T11:18:59.326Z,1.90
2019-04-14T11:21:41.612Z,1.47
2019-04-14T11:24:00.566Z,1.43
2019-04-14T11:26:30.067Z,1.23
2019-04-14T11:28:59.731Z,1.63
2019-04-14T11:32:03.239Z,1.37
2019-04-14T11:34:41.341Z,1.67
2019-04-14T11:37:29.350Z,2.03
2019-04-14T11:39:59.053Z,1.80
2019-04-14T11:42:28.460Z,1.30
2019-04-14T11:44:58.244Z,1.47
2019-04-14T11:47:27.938Z,1.50
2019-04-14T11:49:59.225Z,1.70
2019-04-14T11:52:28.662Z,1.60
2019-04-14T11:54:59.360Z,1.17
2019-04-14T11:57:28.914Z,1.70
2019-04-14T12:00:15.426Z,1.37
2019-04-14T12:03:16.559Z,1.20
2019-04-14T12:06:26.524Z,1.40
2019-04-14T12:09:26.999Z,1.30
2019-04-14T12:11:56.573Z,1.17
2019-04-14T12:14:26.128Z,1.73
2019-04-14T12:16:55.564Z,1.30
2019-04-14T12:19:25.162Z,1.47
2019-04-14T12:22:07.434Z,1.53
2019-04-14T12:24:25.728Z,1.60
2019-04-14T12:26:55.947Z,1.77
2019-04-14T12:29:26.130Z,1.50
2019-04-14T12:31:55.838Z,1.30
2019-04-14T12:34:25.482Z,1.30
2019-04-14T12:36:55.288Z,1.30
2019-04-14T12:39:25.532Z,1.90
2019-04-14T12:42:12.455Z,1.20
2019-04-14T12:45:01.780Z,1.70
2019-04-14T12:47:41.795Z,1.50
2019-04-14T12:50:34.173Z,1.73
2019-04-14T12:53:03.708Z,1.40
2019-04-14T12:55:33.146Z,1.40
2019-04-14T12:58:04.294Z,1.47
2019-04-14T13:00:49.352Z,3.00
2019-04-14T13:03:18.944Z,1.87
2019-04-14T13:05:48.503Z,1.60
2019-04-14T13:08:17.935Z,1.93
2019-04-14T13:10:47.409Z,1.53
2019-04-14T13:13:16.967Z,1.50
2019-04-14T13:15:46.525Z,2.47
2019-04-14T13:18:15.971Z,1.83
2019-04-14T13:20:45.455Z,2.13
2019-04-14T13:23:15.086Z,1.77
2019-04-14T13:25:44.595Z,1.50
2019-04-14T13:28:14.198Z,1.60
2019-04-14T13:30:46.857Z,1.67
2019-04-14T13:33:16.424Z,1.33
2019-04-14T13:35:46.255Z,1.83
2019-04-14T13:38:17.271Z,1.90
2019-04-14T13:40:46.948Z,1.40
2019-04-14T13:43:19.333Z,1.40
2019-04-14T13:45:49.006Z,2.00
2019-04-14T13:48:18.388Z,1.53
2019-04-14T13:50:48.235Z,2.07
2019-04-14T13:53:17.680Z,1.50
2019-04-14T13:55:47.747Z,1.83
2019-04-14T13:58:17.271Z,1.40
2019-04-14T14:00:47.227Z,2.17
2019-04-14T14:03:16.690Z,1.50
2019-04-14T14:05:55.819Z,2.33
2019-04-14T14:08:25.307Z,1.70
2019-04-14T14:10:58.055Z,2.07
2019-04-14T14:13:39.198Z,1.87
2019-04-14T14:16:39.718Z,2.00
2019-04-14T14:19:23.002Z,1.60
2019-04-14T14:22:15.039Z,2.90
2019-04-14T14:24:52.536Z,1.70
2019-04-14T14:27:21.984Z,1.83
2019-04-14T14:29:51.367Z,1.90
2019-04-14T14:32:32.412Z,1.60
2019-04-14T14:35:01.997Z,2.07
2019-04-14T14:37:32.555Z,1.90
2019-04-14T14:40:02.049Z,2.20
2019-04-14T14:42:31.517Z,1.93
2019-04-14T14:45:20.175Z,2.63
2019-04-14T14:48:09.530Z,2.47
2019-04-14T14:50:47.532Z,1.87
2019-04-14T14:53:16.956Z,2.30
2019-04-14T14:55:46.384Z,2.10
2019-04-14T14:58:16.025Z,2.30
2019-04-14T15:00:45.439Z,2.30
2019-04-14T15:03:14.840Z,2.67
2019-04-14T15:05:44.462Z,2.60
2019-04-14T15:08:14.073Z,2.47
2019-04-14T15:10:43.475Z,2.70
2019-04-14T15:13:13.019Z,2.00
2019-04-14T15:15:42.700Z,2.13
2019-04-14T15:18:12.327Z,2.30
2019-04-14T15:20:41.937Z,2.40
2019-04-14T15:23:24.017Z,2.30
2019-04-14T15:25:42.569Z,2.50
2019-04-14T15:28:12.119Z,2.53
2019-04-14T15:30:41.516Z,2.23
2019-04-14T15:33:10.914Z,2.50
2019-04-14T15:35:40.470Z,2.73
2019-04-14T15:38:10.185Z,2.57
2019-04-14T15:40:42.076Z,2.80
2019-04-14T15:43:11.461Z,2.50
2019-04-14T15:45:40.932Z,2.37
2019-04-14T15:48:10.370Z,2.50
2019-04-14T15:50:40.278Z,2.35
2019-04-14T15:53:09.754Z,3.07
2019-04-14T15:55:39.219Z,2.90
2019-04-14T15:58:18.965Z,2.80
2019-04-14T16:01:10.270Z,3.00
2019-04-14T16:03:45.390Z,2.70
2019-04-14T16:06:41.725Z,2.70
2019-04-14T16:09:33.124Z,2.60
2019-04-14T16:12:16.288Z,2.30
2019-04-14T16:15:14.211Z,2.47
2019-04-14T16:18:02.437Z,2.67
2019-04-14T16:20:34.229Z,2.40
2019-04-14T16:23:03.693Z,2.50
2019-04-14T16:26:02.187Z,2.63
2019-04-14T16:28:53.590Z,2.23
2019-04-14T16:31:40.549Z,2.53
2019-04-14T16:34:16.308Z,2.50
2019-04-14T16:36:46.670Z,2.80
2019-04-14T16:39:16.212Z,2.60
2019-04-14T16:41:46.201Z,2.57
2019-04-14T16:44:15.726Z,2.50
2019-04-14T16:46:45.256Z,2.73
2019-04-14T16:49:14.811Z,3.03
2019-04-14T16:52:12.189Z,2.80
2019-04-14T16:54:56.729Z,2.90
2019-04-14T16:57:43.721Z,3.07
2019-04-14T17:00:16.660Z,2.40
2019-04-14T17:02:50.245Z,2.60
2019-04-14T17:05:19.731Z,2.60
2019-04-14T17:07:49.138Z,2.30
2019-04-14T17:10:18.541Z,2.07
2019-04-14T17:12:48.063Z,3.17
2019-04-14T17:15:30.543Z,2.50
2019-04-14T17:18:18.640Z,2.93
2019-04-14T17:21:16.081Z,3.10
2019-04-14T17:23:54.056Z,2.80
2019-04-14T17:26:33.321Z,2.60
2019-04-14T17:29:21.740Z,2.63
2019-04-14T17:32:25.382Z,2.30
2019-04-14T17:35:12.644Z,3.00
2019-04-14T17:38:03.858Z,2.80
2019-04-14T17:40:51.314Z,2.40
2019-04-14T17:43:28.905Z,3.53
2019-04-14T17:46:17.255Z,2.40
2019-04-14T17:49:05.669Z,2.73
2019-04-14T17:51:50.636Z,2.80
2019-04-14T17:54:35.487Z,2.60
2019-04-14T17:57:23.779Z,2.73
2019-04-14T18:00:04.243Z,2.30
2019-04-14T18:02:52.457Z,2.27
2019-04-14T18:05:40.803Z,2.80
2019-04-14T18:08:32.707Z,3.03
2019-04-14T18:11:07.780Z,3.10
2019-04-14T18:14:02.402Z,2.60
2019-04-14T18:16:36.054Z,2.97
2019-04-14T18:19:12.671Z,2.80
2019-04-14T18:21:44.305Z,2.80
2019-04-14T18:24:13.454Z,3.10
2019-04-14T18:26:42.820Z,2.57
2019-04-14T18:29:46.397Z,2.57
2019-04-14T18:32:29.863Z,2.70
2019-04-14T18:35:20.571Z,2.70
2019-04-14T18:38:13.923Z,2.70
2019-04-14T18:41:01.789Z,2.80
2019-04-14T18:43:56.453Z,2.43
2019-04-14T18:46:56.782Z,2.90
2019-04-14T18:49:44.034Z,2.77
2019-04-14T18:52:35.510Z,3.10
2019-04-14T18:55:30.315Z,3.10
2019-04-14T18:58:36.325Z,4.70
2019-04-14T19:01:11.600Z,7.87
2019-04-14T19:03:41.107Z,6.47
2019-04-14T19:06:10.565Z,6.20
2019-04-14T19:08:39.944Z,4.97
2019-04-14T19:11:26.242Z,5.03
2019-04-14T19:13:57.461Z,3.70
2019-04-14T19:16:39.606Z,3.50
2019-04-14T19:19:05.146Z,2.97
2019-04-14T19:21:34.533Z,3.27
2019-04-14T19:24:03.975Z,3.40
2019-04-14T19:26:33.345Z,3.70
2019-04-14T19:29:03.238Z,3.90
2019-04-14T19:31:32.686Z,3.20
2019-04-14T19:34:02.630Z,3.30
2019-04-14T19:36:32.025Z,3.30
2019-04-14T19:39:01.477Z,3.37
2019-04-14T19:41:32.566Z,3.00
2019-04-14T19:44:02.443Z,3.73
2019-04-14T19:46:31.855Z,3.03
2019-04-14T19:49:01.244Z,3.23
2019-04-14T19:51:30.693Z,3.40
2019-04-14T19:54:00.394Z,3.37
2019-04-14T19:56:29.967Z,3.10
2019-04-14T19:59:06.383Z,3.50
2019-04-14T20:01:35.862Z,3.27
2019-04-14T20:04:05.285Z,2.83
2019-04-14T20:06:36.201Z,2.80
2019-04-14T20:09:07.129Z,3.50
2019-04-14T20:11:36.689Z,3.00
2019-04-14T20:14:06.126Z,3.13
2019-04-14T20:17:13.025Z,3.30
2019-04-14T20:19:59.877Z,2.83
2019-04-14T20:22:48.274Z,2.80
2019-04-14T20:25:41.283Z,3.40
2019-04-14T20:28:16.958Z,4.50
2019-04-14T20:30:49.821Z,3.00
2019-04-14T20:33:19.370Z,3.03
2019-04-14T20:35:48.897Z,2.77
2019-04-14T20:38:18.353Z,3.80
2019-04-14T20:40:48.363Z,3.60
2019-04-14T20:43:17.772Z,3.40
2019-04-14T20:45:47.429Z,3.50
2019-04-14T20:48:17.004Z,3.43
2019-04-14T20:50:46.444Z,3.53
2019-04-14T20:53:18.522Z,3.50
2019-04-14T20:55:47.971Z,3.40
2019-04-14T20:58:17.408Z,3.10
2019-04-14T21:00:49.405Z,3.57
2019-04-14T21:03:40.841Z,3.27
2019-04-14T21:06:29.299Z,3.10
2019-04-14T21:09:19.389Z,2.80
2019-04-14T21:12:16.711Z,3.00
2019-04-14T21:14:54.968Z,3.00
2019-04-14T21:17:41.282Z,3.00
2019-04-14T21:20:27.941Z,3.07
2019-04-14T21:23:32.950Z,3.27
2019-04-14T21:26:16.693Z,3.20
2019-04-14T21:29:02.351Z,3.50
2019-04-14T21:31:39.065Z,3.50
2019-04-14T21:34:16.996Z,2.93
2019-04-14T21:36:55.264Z,3.10
2019-04-14T21:39:40.386Z,2.63
2019-04-14T21:42:09.637Z,2.93
2019-04-14T21:44:48.784Z,2.97
2019-04-14T21:47:20.921Z,3.20
2019-04-14T21:49:58.290Z,2.83
2019-04-14T21:52:49.857Z,4.00
2019-04-14T21:55:32.049Z,3.10
2019-04-14T21:58:25.529Z,3.13
2019-04-14T22:01:44.559Z,3.00
2019-04-14T22:04:35.703Z,3.13
2019-04-14T22:07:26.811Z,3.30
2019-04-14T22:10:00.504Z,3.27
2019-04-14T22:12:40.056Z,3.20
2019-04-14T22:15:17.958Z,3.30
2019-04-14T22:17:47.410Z,2.60
2019-04-14T22:20:19.226Z,3.73
2019-04-14T22:22:48.712Z,3.03
2019-04-14T22:25:25.757Z,3.40
2019-04-14T22:27:55.267Z,3.20
2019-04-14T22:30:24.958Z,3.50
2019-04-14T22:32:54.363Z,3.83
2019-04-14T22:35:33.356Z,3.20
2019-04-14T22:38:02.710Z,3.20
2019-04-14T22:40:35.130Z,3.37
2019-04-14T22:43:05.752Z,3.37
2019-04-14T22:46:11.974Z,3.40
2019-04-14T22:48:39.489Z,3.03
2019-04-14T22:51:09.089Z,3.90
2019-04-14T22:54:22.779Z,3.63
2019-04-14T22:56:39.050Z,3.10
2019-04-14T22:59:04.461Z,3.40
2019-04-14T23:01:39.573Z,3.37
2019-04-14T23:04:46.363Z,3.27
2019-04-14T23:07:51.608Z,3.83
2019-04-14T23:10:53.793Z,4.17
2019-04-14T23:14:19.284Z,3.23
2019-04-14T23:17:06.861Z,2.80
2019-04-14T23:19:49.603Z,2.97
2019-04-14T23:22:43.315Z,3.17
2019-04-14T23:25:46.991Z,3.77
2019-04-14T23:28:55.907Z,2.97
2019-04-14T23:31:27.334Z,3.07
2019-04-14T23:34:15.139Z,3.70
2019-04-14T23:36:51.247Z,2.90
2019-04-14T23:39:22.700Z,3.87
2019-04-14T23:41:52.989Z,3.40
2019-04-14T23:44:31.348Z,3.53
2019-04-14T23:47:01.054Z,3.83
2019-04-14T23:49:51.245Z,3.53
